Time;durP1;ratioP1;P1;durP2;ratioP2;P2;SDS_P1;SDS_P2;PMS_P1;PMS_P2;Temp;Humidity;BMP_temperature;BMP_pressure;BME280_temperature;BME280_humidity;BME280_pressure;Samples;Min_cycle;Max_cycle;Signal;HPM_P1;HPM_P2
2022/09/04 00:01:50;;;;;;;5.18;3.37;;;;;;;17.64;64.53;100035.81;4348894;32;32237;-77
2022/09/04 00:04:51;;;;;;;3.87;2.97;;;;;;;17.01;66.74;100031.09;4349303;32;33557;-78
2022/09/04 00:07:37;;;;;;;4.65;3.22;;;;;;;16.67;67.79;100033.75;4362773;32;34661;-77
2022/09/04 00:10:18;;;;;;;5.18;3.20;;;;;;;17.27;65.75;100034.47;4349141;32;35068;-77
2022/09/04 00:12:54;;;;;;;4.25;2.97;;;;;;;17.21;65.98;100035.62;4349438;32;34596;-78
2022/09/04 00:15:27;;;;;;;4.70;3.12;;;;;;;17.21;65.91;100032.88;4349663;32;33469;-78
2022/09/04 00:18:04;;;;;;;5.03;3.20;;;;;;;17.18;66.16;100034.28;4348708;32;33787;-76
2022/09/04 00:20:44;;;;;;;4.07;3.03;;;;;;;17.12;66.51;100031.84;4349684;32;34345;-78
2022/09/04 00:23:28;;;;;;;4.62;3.12;;;;;;;17.27;66.40;100029.00;4362254;32;33656;-77
2022/09/04 00:26:00;;;;;;;4.12;3.37;;;;;;;17.42;65.91;100039.84;4349447;32;33391;-78
2022/09/04 00:28:37;;;;;;;5.78;2.97;;;;;;;17.46;65.57;100045.56;4362350;32;34066;-78
2022/09/04 00:31:37;;;;;;;4.68;3.00;;;;;;;17.36;66.17;100043.72;4337285;32;34120;-77
2022/09/04 00:34:13;;;;;;;4.75;3.22;;;;;;;17.33;66.47;100041.56;4349750;32;33772;-76
2022/09/04 00:36:44;;;;;;;4.35;3.40;;;;;;;17.20;67.23;100045.78;4349232;32;34404;-78
2022/09/04 00:39:39;;;;;;;4.28;2.90;;;;;;;17.35;66.87;100044.84;4349735;32;33763;-76
2022/09/04 00:42:35;;;;;;;4.68;3.12;;;;;;;17.11;67.75;100050.22;4349100;32;34373;-77
2022/09/04 00:45:21;;;;;;;;;;;;;;;16.94;68.42;100050.63;4349338;32;34598;-75
2022/09/04 00:48:28;;;;;;;4.60;3.53;;;;;;;17.21;67.46;100049.31;4349298;32;33289;-76
2022/09/04 00:51:01;;;;;;;4.55;3.25;;;;;;;17.34;67.25;100040.47;4362258;32;34012;-76
2022/09/04 00:53:41;;;;;;;5.03;3.55;;;;;;;17.54;66.55;100044.16;4362368;32;34095;-76
2022/09/04 00:56:36;;;;;;;6.10;3.67;;;;;;;17.44;67.54;100042.28;4362497;32;33790;-76
2022/09/04 00:59:19;;;;;;;;;;;;;;;17.71;66.38;100046.44;4362346;32;33262;-75
2022/09/04 01:01:46;;;;;;;5.40;3.55;;;;;;;17.82;66.02;100046.09;4360963;32;35305;-76
2022/09/04 01:04:37;;;;;;;6.57;3.28;;;;;;;17.67;66.33;100039.88;4362265;32;34001;-76
2022/09/04 01:07:13;;;;;;;4.05;3.10;;;;;;;17.40;67.60;100050.28;4348811;32;33788;-75
2022/09/04 01:09:57;;;;;;;4.70;3.10;;;;;;;17.16;68.50;100049.38;4336717;32;34300;-76
2022/09/04 01:12:28;;;;;;;5.60;4.00;;;;;;;17.12;68.56;100046.38;4348623;32;34134;-76
2022/09/04 01:15:14;;;;;;;4.45;3.45;;;;;;;17.28;67.92;100047.09;4361949;32;35123;-76
2022/09/04 01:18:02;;;;;;;5.68;3.55;;;;;;;17.29;68.08;100061.63;4348830;32;34810;-76
2022/09/04 01:20:48;;;;;;;7.30;3.42;;;;;;;17.38;67.76;100066.19;4348735;32;33057;-76
2022/09/04 01:23:40;;;;;;;4.28;3.33;;;;;;;17.48;67.38;100064.50;4361884;32;33837;-77
2022/09/04 01:26:27;;;;;;;5.12;3.53;;;;;;;17.49;67.36;100061.44;4348258;32;35269;-78
2022/09/04 01:29:15;;;;;;;5.18;3.33;;;;;;;17.11;68.91;100079.56;4348580;32;33911;-77
2022/09/04 01:32:00;;;;;;;5.65;3.75;;;;;;;17.80;66.74;100077.66;4350664;32;33129;-75
2022/09/04 01:35:00;;;;;;;;;;;;;;;17.89;66.16;100078.69;4351273;32;33970;-76
2022/09/04 01:37:40;;;;;;;5.50;3.62;;;;;;;18.11;65.59;100078.19;4346953;32;34506;-76
2022/09/04 01:40:18;;;;;;;4.62;3.50;;;;;;;18.26;64.91;100074.47;4350969;32;33510;-76
2022/09/04 01:43:04;;;;;;;6.43;3.37;;;;;;;17.93;66.29;100085.25;4363543;32;34327;-76
2022/09/04 01:45:51;;;;;;;6.55;3.47;;;;;;;17.61;67.43;100072.06;4350051;32;33764;-76
2022/09/04 01:48:32;;;;;;;4.85;3.42;;;;;;;17.70;67.12;100077.75;4363825;32;34190;-78
2022/09/04 01:51:08;;;;;;;6.10;3.95;;;;;;;17.40;68.18;100083.19;4350540;32;33770;-78
2022/09/04 01:53:39;;;;;;;5.55;3.62;;;;;;;17.70;67.09;100073.06;4350559;32;33571;-76
2022/09/04 01:56:18;;;;;;;4.75;3.50;;;;;;;17.59;67.42;100077.81;4350265;32;33988;-75
2022/09/04 01:58:56;;;;;;;6.90;4.50;;;;;;;17.63;67.54;100081.63;4350567;32;34980;-76
2022/09/04 02:01:53;;;;;;;6.40;4.28;;;;;;;17.21;69.22;100076.75;4350268;32;33715;-77
2022/09/04 02:04:29;;;;;;;6.10;4.47;;;;;;;17.67;67.44;100075.56;4350269;32;33539;-77
2022/09/04 02:07:16;;;;;;;6.20;4.20;;;;;;;17.61;67.55;100075.63;4350319;32;33252;-77
2022/09/04 02:10:03;;;;;;;5.82;4.22;;;;;;;17.20;68.97;100080.59;4350136;32;34128;-77
2022/09/04 02:12:52;;;;;;;6.20;3.83;;;;;;;17.06;69.90;100082.34;4347664;33;34612;-78
2022/09/04 02:15:36;;;;;;;5.72;4.12;;;;;;;17.24;69.30;100086.34;4348977;33;34180;-76
2022/09/04 02:18:35;;;;;;;6.15;4.62;;;;;;;17.19;69.31;100082.53;4340671;32;34759;-78
2022/09/04 02:21:09;;;;;;;5.85;4.65;;;;;;;17.15;69.21;100080.66;4363732;32;33982;-77
2022/09/04 02:23:44;;;;;;;6.22;4.80;;;;;;;17.23;69.04;100077.28;4363752;32;33750;-78
2022/09/04 02:26:18;;;;;;;5.82;4.68;;;;;;;17.29;68.80;100081.63;4350021;32;34412;-78
2022/09/04 02:29:00;;;;;;;5.95;4.45;;;;;;;17.43;67.93;100081.81;4363981;32;34105;-78
2022/09/04 02:31:48;;;;;;;5.75;4.28;;;;;;;17.41;67.96;100086.75;4350004;32;34255;-76
2022/09/04 02:34:44;;;;;;;5.93;4.45;;;;;;;17.40;67.89;100088.66;4363642;32;34670;-77
2022/09/04 02:37:47;;;;;;;8.38;4.40;;;;;;;17.24;68.21;100089.91;4350275;32;33477;-78
2022/09/04 02:40:20;;;;;;;7.43;4.68;;;;;;;17.40;67.54;100094.16;4320622;32;34695;-78
2022/09/04 02:43:11;;;;;;;6.82;4.80;;;;;;;17.59;66.83;100091.53;4350296;32;34199;-78
2022/09/04 02:45:58;;;;;;;7.72;4.15;;;;;;;17.49;67.37;100090.81;4350285;32;33322;-75
2022/09/04 02:49:07;;;;;;;6.10;4.25;;;;;;;17.34;68.16;100083.50;4337787;32;32651;-77
2022/09/04 02:51:44;;;;;;;7.25;4.47;;;;;;;17.29;68.14;100084.37;4304942;33;33993;-77
2022/09/04 02:54:49;;;;;;;5.85;4.22;;;;;;;17.59;66.94;100085.25;4358205;32;34192;-77
2022/09/04 02:57:55;;;;;;;7.87;4.57;;;;;;;17.00;69.51;100087.03;4362829;32;33982;-77
2022/09/04 03:00:35;;;;;;;6.62;4.82;;;;;;;17.10;69.11;100095.19;4361047;32;33562;-77
2022/09/04 03:03:16;;;;;;;6.93;4.65;;;;;;;17.19;68.30;100089.91;4347518;32;33379;-78
2022/09/04 03:05:55;;;;;;;6.87;4.32;;;;;;;17.53;67.35;100092.69;4343530;32;34027;-76
2022/09/04 03:08:35;;;;;;;5.78;3.85;;;;;;;17.59;66.81;100091.53;4350149;32;34532;-76
2022/09/04 03:11:15;;;;;;;5.10;4.25;;;;;;;17.43;67.90;100087.31;4334210;33;32682;-77
2022/09/04 03:13:51;;;;;;;5.18;4.10;;;;;;;17.22;68.19;100092.91;4346142;33;34646;-77
2022/09/04 03:16:36;;;;;;;6.37;4.50;;;;;;;17.33;67.93;100081.88;4347341;33;35228;-77
2022/09/04 03:19:30;;;;;;;5.62;4.28;;;;;;;17.51;67.27;100083.91;4347206;33;33729;-77
2022/09/04 03:22:36;;;;;;;5.20;3.60;;;;;;;17.64;66.60;100087.94;4346286;33;33481;-77
2022/09/04 03:25:22;;;;;;;6.62;4.18;;;;;;;17.01;68.98;100094.16;4325097;33;33485;-76
2022/09/04 03:27:50;;;;;;;5.62;3.72;;;;;;;17.96;65.59;100097.56;4348410;33;34056;-76
2022/09/04 03:30:17;;;;;;;5.15;3.40;;;;;;;17.84;65.82;100100.72;4349578;32;33641;-77
2022/09/04 03:33:08;;;;;;;5.65;4.00;;;;;;;17.76;65.95;100104.84;4333781;33;33598;-77
2022/09/04 03:35:41;;;;;;;5.82;4.10;;;;;;;17.50;66.60;100104.25;4346819;33;33998;-76
2022/09/04 03:38:27;;;;;;;5.47;3.78;;;;;;;17.90;65.26;100106.94;4348671;32;34303;-76
2022/09/04 03:41:07;;;;;;;4.93;3.70;;;;;;;17.82;65.33;100111.16;4346304;33;34024;-76
2022/09/04 03:43:46;;;;;;;4.37;3.47;;;;;;;17.35;67.36;100107.91;4334055;33;32746;-76
2022/09/04 03:46:30;;;;;;;5.20;3.95;;;;;;;17.42;66.84;100119.38;4348190;33;34131;-76
2022/09/04 03:49:01;;;;;;;6.43;4.45;;;;;;;17.16;67.75;100113.25;4348274;33;35050;-78
2022/09/04 03:51:37;;;;;;;6.10;4.37;;;;;;;17.50;66.81;100122.63;4348403;33;34564;-77
2022/09/04 03:54:35;;;;;;;5.60;3.97;;;;;;;17.21;67.91;100117.88;4359695;32;33536;-77
2022/09/04 03:57:17;;;;;;;5.72;4.28;;;;;;;17.48;66.90;100117.44;4349671;32;33870;-78
2022/09/04 03:59:55;;;;;;;6.15;4.30;;;;;;;16.95;68.69;100120.78;4338361;33;33995;-76
2022/09/04 04:02:26;;;;;;;7.15;4.37;;;;;;;17.39;66.85;100119.97;4340431;32;33759;-75
2022/09/04 04:04:59;;;;;;;4.95;3.95;;;;;;;17.15;67.84;100117.09;4361528;32;34376;-75
2022/09/04 04:07:46;;;;;;;5.78;4.30;;;;;;;17.53;66.48;100119.31;4355544;32;34851;-77
2022/09/04 04:10:45;;;;;;;6.32;4.50;;;;;;;17.36;67.07;100125.19;4353233;32;34007;-75
2022/09/04 04:13:15;;;;;;;6.55;4.22;;;;;;;17.07;68.17;100136.88;4354880;32;33958;-74
2022/09/04 04:15:54;;;;;;;6.40;4.72;;;;;;;17.28;67.56;100128.53;4353354;32;33576;-75
2022/09/04 04:18:31;;;;;;;6.35;4.80;;;;;;;16.79;69.14;100141.09;4354336;32;33901;-75
2022/09/04 04:21:07;;;;;;;6.50;4.62;;;;;;;16.74;69.53;100144.69;4355152;32;34221;-79
2022/09/04 04:24:11;;;;;;;7.62;4.75;;;;;;;16.67;69.82;100155.09;4352757;32;33776;-80
2022/09/04 04:26:57;;;;;;;6.43;4.93;;;;;;;16.74;69.74;100155.66;4354555;32;33170;-76
2022/09/04 04:29:50;;;;;;;5.87;4.37;;;;;;;16.93;69.11;100160.50;4352730;32;34881;-76
2022/09/04 04:32:32;;;;;;;6.50;4.78;;;;;;;16.61;70.54;100175.41;4343970;32;34767;-78
2022/09/04 04:35:10;;;;;;;7.10;5.00;;;;;;;16.88;69.53;100171.50;4353119;32;33614;-78
2022/09/04 04:38:12;;;;;;;6.25;4.72;;;;;;;16.77;69.85;100179.72;4342729;32;32351;-76
2022/09/04 04:41:02;;;;;;;6.07;4.80;;;;;;;16.98;69.08;100179.69;4353323;32;34053;-77
2022/09/04 04:44:01;;;;;;;6.20;4.37;;;;;;;16.95;69.43;100186.56;4344961;32;35163;-72
2022/09/04 04:47:00;;;;;;;6.25;4.62;;;;;;;17.07;68.98;100185.41;4338883;32;32748;-74
2022/09/04 04:50:04;;;;;;;5.62;4.53;;;;;;;17.18;68.35;100184.25;4355297;32;33217;-74
2022/09/04 04:52:59;;;;;;;8.23;4.75;;;;;;;17.19;68.58;100189.47;4355131;32;34760;-75
2022/09/04 04:55:48;;;;;;;6.37;4.80;;;;;;;17.04;69.37;100192.28;4340381;32;35128;-75
2022/09/04 04:58:20;;;;;;;5.85;4.55;;;;;;;17.35;67.98;100195.69;4350525;32;34580;-76
2022/09/04 05:01:14;;;;;;;6.12;4.53;;;;;;;17.00;69.75;100199.44;4361801;32;34279;-76
2022/09/04 05:03:54;;;;;;;6.37;4.43;;;;;;;17.21;68.67;100203.72;4361794;32;33923;-75
2022/09/04 05:06:34;;;;;;;5.53;4.00;;;;;;;17.31;68.82;100210.25;4350013;32;34042;-78
2022/09/04 05:09:27;;;;;;;5.53;4.37;;;;;;;17.51;68.01;100198.34;4350991;32;33789;-78
2022/09/04 05:12:01;;;;;;;6.50;4.20;;;;;;;17.21;68.96;100197.38;4349257;32;34315;-77
2022/09/04 05:14:38;;;;;;;6.70;4.12;;;;;;;17.12;69.39;100201.84;4349930;32;34839;-77
2022/09/04 05:17:25;;;;;;;4.85;3.87;;;;;;;17.20;69.42;100202.06;4356480;32;34196;-76
2022/09/04 05:20:26;;;;;;;5.85;4.18;;;;;;;17.20;69.62;100204.81;4363136;32;34671;-75
2022/09/04 05:23:08;;;;;;;5.25;4.20;;;;;;;17.31;69.37;100208.31;4350565;32;34305;-73
2022/09/04 05:25:59;;;;;;;5.47;4.25;;;;;;;17.22;69.65;100202.59;4363833;32;34033;-75
2022/09/04 05:29:04;;;;;;;5.43;4.05;;;;;;;17.19;69.89;100207.81;4350243;32;34363;-71
2022/09/04 05:31:35;;;;;;;4.82;3.50;;;;;;;17.60;68.45;100202.94;4347827;32;34373;-73
2022/09/04 05:34:24;;;;;;;4.93;3.78;;;;;;;17.82;67.24;100215.44;4362264;32;34190;-70
2022/09/04 05:37:13;;;;;;;4.53;3.67;;;;;;;17.74;67.56;100213.28;4349828;32;33524;-74
2022/09/04 05:39:53;;;;;;;5.00;3.70;;;;;;;17.53;68.20;100218.88;4363571;32;34213;-74
2022/09/04 05:42:38;;;;;;;6.68;3.80;;;;;;;17.64;68.02;100222.38;4363663;32;33700;-74
2022/09/04 05:45:28;;;;;;;3.90;3.37;;;;;;;17.41;68.91;100226.66;4363633;32;33415;-71
2022/09/04 05:48:07;;;;;;;5.43;3.78;;;;;;;17.26;69.83;100237.72;4363701;32;34643;-70
2022/09/04 05:50:36;;;;;;;6.57;3.80;;;;;;;17.16;70.70;100233.87;4347028;32;33991;-70
2022/09/04 05:53:52;;;;;;;4.80;3.45;;;;;;;17.12;70.59;100240.22;4347880;33;34758;-72
2022/09/04 05:56:42;;;;;;;6.93;3.70;;;;;;;17.61;68.52;100237.50;4275059;33;33329;-69
2022/09/04 05:59:35;;;;;;;4.97;3.62;;;;;;;17.58;68.77;100237.22;4350054;32;34837;-70
2022/09/04 06:02:30;;;;;;;6.32;3.65;;;;;;;17.42;69.84;100229.09;4349788;32;34237;-68
2022/09/04 06:05:34;;;;;;;5.65;3.85;;;;;;;17.28;70.42;100236.31;4330760;32;33039;-71
2022/09/04 06:08:25;;;;;;;5.03;3.55;;;;;;;17.26;70.05;100224.81;4352716;32;33516;-72
2022/09/04 06:11:24;;;;;;;4.70;3.28;;;;;;;17.14;70.81;100232.53;4343476;32;34284;-75
2022/09/04 06:14:04;;;;;;;4.97;3.72;;;;;;;17.22;70.66;100232.78;4361749;32;34226;-69
2022/09/04 06:16:53;;;;;;;5.03;3.30;;;;;;;17.19;71.14;100238.81;4351054;32;33692;-71
2022/09/04 06:19:48;;;;;;;4.28;3.20;;;;;;;17.31;70.63;100227.50;4348432;32;34173;-72
2022/09/04 06:22:37;;;;;;;4.60;3.47;;;;;;;17.24;70.75;100232.50;4353997;32;34826;-72
2022/09/04 06:25:13;;;;;;;4.50;3.40;;;;;;;17.37;70.21;100233.81;4361993;32;35135;-73
2022/09/04 06:28:01;;;;;;;4.55;3.17;;;;;;;17.65;69.04;100243.25;4348906;32;33189;-73
2022/09/04 06:30:40;;;;;;;5.87;3.20;;;;;;;17.44;69.63;100248.03;4362431;32;34289;-72
2022/09/04 06:33:08;;;;;;;5.00;3.65;;;;;;;17.22;70.61;100245.66;4349095;32;34306;-72
2022/09/04 06:35:45;;;;;;;5.82;3.35;;;;;;;17.64;68.42;100241.59;4362466;32;35112;-72
2022/09/04 06:38:24;;;;;;;5.22;3.42;;;;;;;17.70;68.75;100248.69;4362466;32;33409;-73
2022/09/04 06:41:10;;;;;;;4.35;2.90;;;;;;;17.75;68.46;100250.59;4348639;32;32893;-73
2022/09/04 06:43:41;;;;;;;3.80;3.10;;;;;;;17.98;67.54;100247.16;4362371;32;34056;-72
2022/09/04 06:46:22;;;;;;;4.68;3.22;;;;;;;17.73;68.19;100253.63;4362410;32;35178;-72
2022/09/04 06:49:02;;;;;;;6.43;3.67;;;;;;;17.61;69.04;100258.63;4362338;32;34610;-73
2022/09/04 06:51:59;;;;;;;4.55;3.17;;;;;;;17.69;68.44;100260.78;4362293;32;33424;-71
2022/09/04 06:54:49;;;;;;;4.75;3.50;;;;;;;17.53;69.27;100270.19;4348661;32;33770;-77
2022/09/04 06:57:37;;;;;;;4.62;3.10;;;;;;;17.28;69.94;100265.62;4362382;32;34098;-70
2022/09/04 07:00:10;;;;;;;6.72;3.30;;;;;;;17.78;68.08;100275.53;4348718;32;33600;-72
2022/09/04 07:02:37;;;;;;;5.70;3.47;;;;;;;17.72;68.83;100262.94;4356989;32;33487;-76
2022/09/04 07:05:40;;;;;;;5.00;3.22;;;;;;;17.86;67.46;100276.06;4344921;33;33936;-77
2022/09/04 07:08:15;;;;;;;4.93;3.55;;;;;;;17.81;67.80;100274.97;4312998;33;35047;-73
2022/09/04 07:10:57;;;;;;;6.22;2.92;;;;;;;17.68;68.37;100272.03;4343475;33;34599;-69
2022/09/04 07:13:34;;;;;;;5.82;3.72;;;;;;;17.90;67.67;100277.97;4345088;33;33078;-72
2022/09/04 07:16:31;;;;;;;4.20;3.50;;;;;;;18.10;67.56;100279.75;4347961;33;34157;-71
2022/09/04 07:19:14;;;;;;;4.82;3.20;;;;;;;17.96;67.16;100278.75;4347552;33;32927;-73
2022/09/04 07:21:48;;;;;;;4.30;2.95;;;;;;;18.06;67.48;100283.38;4348216;33;34447;-72
2022/09/04 07:24:25;;;;;;;4.57;3.20;;;;;;;17.77;68.75;100284.87;4334453;33;31525;-70
2022/09/04 07:26:59;;;;;;;4.05;3.40;;;;;;;17.98;67.54;100277.34;4347682;33;33994;-73
2022/09/04 07:29:35;;;;;;;4.18;2.90;;;;;;;17.79;68.65;100279.91;4320142;33;33407;-74
2022/09/04 07:32:44;;;;;;;4.37;3.05;;;;;;;17.95;67.72;100268.91;4347975;33;33966;-74
2022/09/04 07:35:15;;;;;;;4.78;3.28;;;;;;;18.27;66.27;100282.06;4348439;33;33210;-74
2022/09/04 07:38:00;;;;;;;3.67;2.80;;;;;;;18.39;66.22;100285.28;4347425;33;34660;-73
2022/09/04 07:40:38;;;;;;;4.87;3.53;;;;;;;18.44;66.60;100292.66;4348532;33;35196;-73
2022/09/04 07:43:35;;;;;;;5.00;3.75;;;;;;;18.50;65.08;100291.50;4335334;33;34037;-74
2022/09/04 07:46:09;;;;;;;4.07;3.15;;;;;;;18.13;66.65;100297.59;4335058;33;33075;-74
2022/09/04 07:48:50;;;;;;;4.40;3.08;;;;;;;18.27;65.74;100287.56;4334906;33;34053;-74
2022/09/04 07:51:26;;;;;;;4.18;3.10;;;;;;;18.40;65.89;100292.44;4322967;33;32846;-74
2022/09/04 07:54:18;;;;;;;4.80;3.50;;;;;;;18.64;64.67;100297.16;4334853;33;33855;-76
2022/09/04 07:57:17;;;;;;;5.40;3.70;;;;;;;18.15;65.62;100300.88;4348201;33;33526;-73
2022/09/04 08:00:02;;;;;;;4.93;3.12;;;;;;;18.33;65.48;100288.37;4322661;33;34182;-74
2022/09/04 08:03:12;;;;;;;5.07;3.65;;;;;;;18.31;65.86;100305.13;4348045;33;34226;-74
2022/09/04 08:06:03;;;;;;;3.62;3.10;;;;;;;18.21;65.97;100311.53;4352382;32;33559;-76
2022/09/04 08:08:36;;;;;;;5.10;3.75;;;;;;;18.12;66.16;100318.75;4361628;32;33294;-74
2022/09/04 08:11:24;;;;;;;5.63;3.77;;;;;;;18.02;66.22;100313.31;4363133;32;33894;-79
2022/09/04 08:14:08;;;;;;;5.45;3.90;;;;;;;18.16;65.88;100336.28;4361721;32;34876;-74
2022/09/04 08:17:19;;;;;;;5.25;3.17;;;;;;;18.50;65.18;100326.41;4363033;32;34191;-74
2022/09/04 08:20:08;;;;;;;4.53;3.20;;;;;;;18.93;63.92;100329.34;4359745;32;33419;-73
2022/09/04 08:23:30;;;;;;;4.18;2.95;;;;;;;19.38;61.85;100325.28;4362926;32;34103;-74
2022/09/04 08:26:13;;;;;;;4.70;3.28;;;;;;;19.14;62.00;100327.22;4287416;33;34071;-75
2022/09/04 08:28:55;;;;;;;4.53;3.33;;;;;;;18.54;64.47;100328.31;4362643;32;34450;-74
2022/09/04 08:31:29;;;;;;;3.97;3.35;;;;;;;19.06;62.76;100331.41;4362848;32;33294;-74
2022/09/04 08:34:24;;;;;;;4.60;3.17;;;;;;;18.75;64.06;100331.69;4361430;32;34700;-74
2022/09/04 08:37:13;;;;;;;5.10;3.58;;;;;;;19.22;61.95;100337.56;4362912;32;34149;-75
2022/09/04 08:40:37;;;;;;;4.72;3.10;;;;;;;18.83;64.26;100339.34;4362223;32;33862;-76
2022/09/04 08:43:31;;;;;;;4.60;3.30;;;;;;;18.59;65.63;100333.75;4339784;32;33486;-74
2022/09/04 08:46:18;;;;;;;4.43;3.28;;;;;;;18.97;64.07;100331.22;4362512;32;33722;-78
2022/09/04 08:49:06;;;;;;;3.95;3.22;;;;;;;19.01;62.56;100339.72;4362599;32;33883;-74
2022/09/04 08:51:42;;;;;;;6.43;3.58;;;;;;;18.65;64.16;100338.09;4362479;32;34566;-74
2022/09/04 08:54:16;;;;;;;4.78;3.33;;;;;;;18.69;63.69;100341.09;4362786;32;33432;-76
2022/09/04 08:56:53;;;;;;;6.03;3.47;;;;;;;18.91;63.18;100342.56;4361196;32;34099;-70
2022/09/04 08:59:35;;;;;;;3.97;3.10;;;;;;;19.44;61.23;100345.31;4362068;32;34379;-70
2022/09/04 09:02:15;;;;;;;4.68;3.28;;;;;;;19.23;61.56;100341.97;4368716;32;33953;-71
2022/09/04 09:05:09;;;;;;;3.60;2.83;;;;;;;19.08;62.44;100344.88;4376374;32;33328;-72
2022/09/04 09:08:07;;;;;;;5.65;3.97;;;;;;;19.30;62.33;100342.44;4347459;32;33753;-71
2022/09/04 09:11:12;;;;;;;5.03;3.45;;;;;;;19.00;62.58;100335.31;4351783;32;34300;-78
2022/09/04 09:14:20;;;;;;;4.82;3.65;;;;;;;18.76;63.31;100344.31;4345959;33;34236;-74
2022/09/04 09:17:11;;;;;;;4.53;3.33;;;;;;;18.96;62.87;100348.84;4345657;33;33466;-76
2022/09/04 09:20:19;;;;;;;4.62;3.25;;;;;;;19.43;61.64;100349.97;4332179;33;33527;-76
2022/09/04 09:23:15;;;;;;;6.22;3.75;;;;;;;19.08;63.06;100345.69;4305627;33;34950;-73
2022/09/04 09:25:48;;;;;;;4.90;3.45;;;;;;;19.01;63.39;100347.97;4343994;33;33888;-74
2022/09/04 09:28:27;;;;;;;5.30;3.40;;;;;;;18.98;63.32;100356.78;4332469;33;33095;-72
2022/09/04 09:31:07;;;;;;;5.05;3.72;;;;;;;19.25;63.14;100356.25;4345308;33;34900;-74
2022/09/04 09:33:41;;;;;;;5.07;3.50;;;;;;;19.69;60.86;100357.91;4345879;33;34046;-74
2022/09/04 09:36:13;;;;;;;5.90;3.65;;;;;;;19.75;60.58;100364.22;4345651;33;34615;-75
2022/09/04 09:38:40;;;;;;;6.62;4.57;;;;;;;19.75;60.10;100362.28;4332488;33;33505;-75
2022/09/04 09:41:44;;;;;;;7.32;4.53;;;;;;;19.73;59.80;100359.00;4341759;33;34092;-71
2022/09/04 09:44:19;;;;;;;4.68;3.50;;;;;;;19.97;59.67;100353.44;4331679;33;35146;-72
2022/09/04 09:46:58;;;;;;;4.87;3.65;;;;;;;19.57;60.99;100363.03;4331548;33;35215;-72
2022/09/04 09:49:44;;;;;;;4.78;3.67;;;;;;;19.74;61.07;100359.81;4345306;33;34498;-72
2022/09/04 09:52:50;;;;;;;7.20;4.93;;;;;;;19.71;62.24;100357.66;4334016;33;33703;-73
2022/09/04 09:55:44;;;;;;;5.15;3.80;;;;;;;19.94;58.97;100356.81;4346944;33;34602;-71
2022/09/04 09:58:18;;;;;;;5.10;3.65;;;;;;;19.77;60.02;100353.72;4347552;33;34066;-72
2022/09/04 10:01:10;;;;;;;5.18;3.58;;;;;;;20.00;58.65;100349.28;4347000;33;33460;-71
2022/09/04 10:03:38;;;;;;;4.95;3.90;;;;;;;19.94;59.23;100356.81;4347700;33;33607;-75
2022/09/04 10:06:34;;;;;;;5.20;3.80;;;;;;;19.97;58.91;100361.72;4353510;32;35198;-71
2022/09/04 10:09:14;;;;;;;5.95;3.55;;;;;;;20.22;58.68;100368.81;4330591;32;34850;-71
2022/09/04 10:12:05;;;;;;;5.75;3.70;;;;;;;20.09;59.42;100366.78;4362277;32;34371;-70
2022/09/04 10:14:55;;;;;;;4.20;3.25;;;;;;;19.97;59.69;100364.47;4360814;32;34928;-72
2022/09/04 10:17:53;;;;;;;5.60;3.60;;;;;;;20.16;58.58;100363.66;4362304;32;34232;-71
2022/09/04 10:20:39;;;;;;;4.85;3.42;;;;;;;19.89;60.18;100356.84;4362351;32;34025;-71
2022/09/04 10:23:26;;;;;;;5.18;3.60;;;;;;;20.25;58.98;100361.88;4362299;32;33477;-71
2022/09/04 10:26:15;;;;;;;4.70;3.37;;;;;;;19.81;60.12;100358.34;4347869;32;34028;-77
2022/09/04 10:29:25;;;;;;;4.15;3.25;;;;;;;20.15;59.27;100357.34;4362151;32;33878;-71
2022/09/04 10:32:12;;;;;;;4.10;2.95;;;;;;;19.98;60.78;100359.78;4348904;32;34710;-73
2022/09/04 10:35:17;;;;;;;3.95;2.90;;;;;;;20.26;60.17;100353.31;4348783;32;34081;-72
2022/09/04 10:37:55;;;;;;;5.40;3.57;;;;;;;20.22;60.46;100357.78;4348732;32;33937;-71
2022/09/04 10:40:49;;;;;;;5.05;3.20;;;;;;;20.26;61.03;100358.00;4362011;32;34181;-77
2022/09/04 10:43:21;;;;;;;;;;;;;;;20.24;60.41;100368.50;4352824;32;34733;-74
2022/09/04 10:46:27;;;;;;;4.62;3.15;;;;;;;21.04;59.54;100375.75;4361722;32;34228;-74
2022/09/04 10:49:37;;;;;;;6.00;3.22;;;;;;;21.31;60.92;100369.44;4319493;32;35388;-75
2022/09/04 10:52:33;;;;;;;4.55;3.17;;;;;;;20.92;62.34;100369.91;4352508;32;34198;-75
2022/09/04 10:55:19;;;;;;;5.75;3.08;;;;;;;20.63;64.92;100370.94;4360381;32;33608;-76
2022/09/04 10:58:22;;;;;;;4.22;3.30;;;;;;;20.77;65.83;100372.94;4362168;32;33416;-76
2022/09/04 11:01:16;;;;;;;5.25;3.28;;;;;;;21.17;65.84;100371.38;4328592;32;34479;-75
2022/09/04 11:03:53;;;;;;;5.82;3.00;;;;;;;21.07;66.02;100377.91;4348165;32;35078;-74
2022/09/04 11:06:37;;;;;;;4.40;3.22;;;;;;;20.80;67.39;100381.44;4361338;32;34216;-75
2022/09/04 11:09:25;;;;;;;5.37;3.72;;;;;;;20.26;69.48;100372.59;4348222;32;34237;-74
2022/09/04 11:12:16;;;;;;;5.28;3.47;;;;;;;20.11;66.11;100375.59;4362037;32;33964;-73
2022/09/04 11:15:00;;;;;;;5.35;3.58;;;;;;;19.74;66.18;100381.84;4348294;32;34154;-76
2022/09/04 11:17:51;;;;;;;5.47;3.87;;;;;;;20.00;67.56;100379.56;4348435;32;33967;-75
2022/09/04 11:20:32;;;;;;;4.32;3.67;;;;;;;20.13;67.67;100378.00;4347984;32;34318;-77
2022/09/04 11:23:35;;;;;;;5.45;3.55;;;;;;;20.27;65.77;100379.72;4361998;32;34684;-76
2022/09/04 11:26:27;;;;;;;6.12;3.65;;;;;;;20.37;66.02;100370.50;4361697;32;33981;-75
2022/09/04 11:29:11;;;;;;;5.05;3.55;;;;;;;20.56;66.57;100381.53;4348160;32;33897;-75
2022/09/04 11:32:05;;;;;;;5.50;3.72;;;;;;;20.18;65.37;100377.97;4362132;32;32899;-76
2022/09/04 11:34:51;;;;;;;5.10;3.35;;;;;;;20.75;62.06;100375.16;4331802;32;33887;-76
2022/09/04 11:37:25;;;;;;;4.60;3.33;;;;;;;20.51;61.47;100378.00;4361781;32;34292;-76
2022/09/04 11:39:52;;;;;;;4.80;3.50;;;;;;;20.79;60.84;100379.78;4356362;32;33759;-74
2022/09/04 11:42:31;;;;;;;5.30;3.60;;;;;;;20.97;59.55;100377.25;4347218;33;33587;-75
2022/09/04 11:45:25;;;;;;;4.75;3.40;;;;;;;20.60;59.38;100373.47;4333169;33;33781;-75
2022/09/04 11:47:59;;;;;;;4.78;3.70;;;;;;;20.49;61.58;100370.84;4333607;33;34261;-76
2022/09/04 11:50:44;;;;;;;6.55;3.47;;;;;;;20.51;61.19;100367.81;4346637;33;33815;-77
2022/09/04 11:53:38;;;;;;;4.57;3.12;;;;;;;21.03;58.48;100368.59;4347059;33;33150;-75
2022/09/04 11:56:44;;;;;;;5.10;3.03;;;;;;;20.79;59.71;100365.97;4346804;33;33687;-73
2022/09/04 11:59:50;;;;;;;4.85;3.08;;;;;;;20.93;57.80;100356.91;4332619;33;33545;-75
2022/09/04 12:02:36;;;;;;;4.87;3.05;;;;;;;21.09;58.20;100353.59;4346696;33;33965;-74
2022/09/04 12:05:54;;;;;;;4.78;3.50;;;;;;;21.33;56.93;100349.81;4347000;32;33738;-74
2022/09/04 12:08:30;;;;;;;3.92;2.78;;;;;;;20.93;61.11;100340.38;4334429;32;34607;-75
2022/09/04 12:11:33;;;;;;;4.32;3.17;;;;;;;21.13;59.60;100336.44;4360586;32;34861;-74
2022/09/04 12:14:07;;;;;;;5.05;3.12;;;;;;;21.27;58.65;100332.56;4350559;32;33988;-75
2022/09/04 12:17:02;;;;;;;4.50;3.08;;;;;;;21.57;58.11;100343.31;4362465;32;33466;-76
2022/09/04 12:19:41;;;;;;;4.80;2.97;;;;;;;21.50;55.94;100341.78;4349184;32;34780;-76
2022/09/04 12:22:33;;;;;;;3.55;2.67;;;;;;;20.95;57.48;100329.84;4362322;32;34894;-78
2022/09/04 12:25:28;;;;;;;4.20;2.90;;;;;;;21.81;55.49;100338.34;4348804;32;33970;-74
2022/09/04 12:28:11;;;;;;;4.78;2.85;;;;;;;21.96;53.66;100339.16;4362522;32;33565;-72
2022/09/04 12:31:00;;;;;;;3.58;2.75;;;;;;;21.34;55.26;100337.69;4357318;32;164178;-70
2022/09/04 12:33:58;;;;;;;3.35;2.60;;;;;;;21.77;54.72;100345.66;4362174;32;34315;-72
2022/09/04 12:36:58;;;;;;;3.90;3.08;;;;;;;21.58;55.87;100336.69;4362375;32;34668;-72
2022/09/04 12:39:34;;;;;;;4.50;3.25;;;;;;;22.10;54.43;100342.72;4360412;32;33288;-72
2022/09/04 12:42:10;;;;;;;3.25;2.22;;;;;;;22.28;53.94;100341.75;4349043;32;33969;-75
2022/09/04 12:44:43;;;;;;;3.87;2.85;;;;;;;22.12;51.95;100332.16;4360240;32;35777;-75
2022/09/04 12:47:31;;;;;;;3.97;3.12;;;;;;;22.27;52.92;100331.84;4361969;32;34095;-75
2022/09/04 12:50:21;;;;;;;4.20;2.97;;;;;;;22.64;52.45;100327.03;4361987;32;34071;-79
2022/09/04 12:53:07;;;;;;;3.97;2.97;;;;;;;22.23;54.03;100335.53;4348691;32;34013;-69
2022/09/04 12:55:48;;;;;;;3.75;2.72;;;;;;;21.83;55.27;100332.53;4362131;32;34552;-69